sensor_id;sensor_type;location;lat;lon;timestamp;P1;durP1;ratioP1;P2;durP2;ratioP2
13408;SDS011;6775;49.574;11.170;2022-07-17T00:00:42;1.10;;;1.00;;
13408;SDS011;6775;49.574;11.170;2022-07-17T00:03:10;2.20;;;0.90;;
13408;SDS011;6775;49.574;11.170;2022-07-17T00:05:41;2.30;;;1.00;;
13408;SDS011;6775;49.574;11.170;2022-07-17T00:08:10;1.73;;;1.10;;
13408;SDS011;6775;49.574;11.170;2022-07-17T00:10:39;1.17;;;1.00;;
13408;SDS011;6775;49.574;11.170;2022-07-17T00:13:08;2.10;;;1.00;;
13408;SDS011;6775;49.574;11.170;2022-07-17T00:15:37;2.23;;;1.20;;
13408;SDS011;6775;49.574;11.170;2022-07-17T00:18:05;0.80;;;0.80;;
13408;SDS011;6775;49.574;11.170;2022-07-17T00:20:34;0.70;;;0.70;;
13408;SDS011;6775;49.574;11.170;2022-07-17T00:23:04;2.10;;;1.00;;
13408;SDS011;6775;49.574;11.170;2022-07-17T00:25:32;1.87;;;1.00;;
13408;SDS011;6775;49.574;11.170;2022-07-17T00:28:00;1.60;;;1.03;;
13408;SDS011;6775;49.574;11.170;2022-07-17T00:30:28;1.57;;;0.90;;
13408;SDS011;6775;49.574;11.170;2022-07-17T00:32:56;1.30;;;0.90;;
13408;SDS011;6775;49.574;11.170;2022-07-17T00:35:25;0.97;;;0.70;;
13408;SDS011;6775;49.574;11.170;2022-07-17T00:37:53;0.80;;;0.60;;
13408;SDS011;6775;49.574;11.170;2022-07-17T00:40:23;1.80;;;0.70;;
13408;SDS011;6775;49.574;11.170;2022-07-17T00:42:52;2.03;;;0.90;;
13408;SDS011;6775;49.574;11.170;2022-07-17T00:45:20;1.53;;;1.00;;
13408;SDS011;6775;49.574;11.170;2022-07-17T00:47:53;0.87;;;0.87;;
13408;SDS011;6775;49.574;11.170;2022-07-17T00:50:22;1.90;;;0.83;;
13408;SDS011;6775;49.574;11.170;2022-07-17T00:52:52;1.50;;;0.90;;
13408;SDS011;6775;49.574;11.170;2022-07-17T00:55:20;0.80;;;0.80;;
13408;SDS011;6775;49.574;11.170;2022-07-17T00:58:11;1.20;;;0.70;;
13408;SDS011;6775;49.574;11.170;2022-07-17T01:00:44;0.90;;;0.80;;
13408;SDS011;6775;49.574;11.170;2022-07-17T01:03:13;1.70;;;0.90;;
13408;SDS011;6775;49.574;11.170;2022-07-17T01:05:42;0.83;;;0.60;;
13408;SDS011;6775;49.574;11.170;2022-07-17T01:08:10;1.87;;;1.00;;
13408;SDS011;6775;49.574;11.170;2022-07-17T01:10:40;0.93;;;0.70;;
13408;SDS011;6775;49.574;11.170;2022-07-17T01:13:08;1.83;;;0.80;;
13408;SDS011;6775;49.574;11.170;2022-07-17T01:15:37;2.27;;;0.80;;
13408;SDS011;6775;49.574;11.170;2022-07-17T01:18:07;0.83;;;0.70;;
13408;SDS011;6775;49.574;11.170;2022-07-17T01:20:38;1.17;;;0.80;;
13408;SDS011;6775;49.574;11.170;2022-07-17T01:23:09;1.40;;;1.30;;
13408;SDS011;6775;49.574;11.170;2022-07-17T01:25:38;0.93;;;0.80;;
13408;SDS011;6775;49.574;11.170;2022-07-17T01:28:06;1.30;;;0.80;;
13408;SDS011;6775;49.574;11.170;2022-07-17T01:30:35;2.73;;;0.87;;
13408;SDS011;6775;49.574;11.170;2022-07-17T01:33:04;0.67;;;0.67;;
13408;SDS011;6775;49.574;11.170;2022-07-17T01:35:32;1.10;;;0.80;;
13408;SDS011;6775;49.574;11.170;2022-07-17T01:38:00;2.07;;;0.90;;
13408;SDS011;6775;49.574;11.170;2022-07-17T01:40:29;1.03;;;0.87;;
13408;SDS011;6775;49.574;11.170;2022-07-17T01:42:57;1.57;;;0.77;;
13408;SDS011;6775;49.574;11.170;2022-07-17T01:45:26;1.10;;;0.90;;
13408;SDS011;6775;49.574;11.170;2022-07-17T01:47:54;1.00;;;0.70;;
13408;SDS011;6775;49.574;11.170;2022-07-17T01:50:22;2.37;;;0.90;;
13408;SDS011;6775;49.574;11.170;2022-07-17T01:52:50;2.27;;;0.90;;
13408;SDS011;6775;49.574;11.170;2022-07-17T01:55:18;1.57;;;0.90;;
13408;SDS011;6775;49.574;11.170;2022-07-17T01:57:47;2.93;;;1.03;;
13408;SDS011;6775;49.574;11.170;2022-07-17T02:00:16;2.33;;;1.67;;
13408;SDS011;6775;49.574;11.170;2022-07-17T02:02:46;0.77;;;0.77;;
13408;SDS011;6775;49.574;11.170;2022-07-17T02:05:14;1.37;;;1.00;;
13408;SDS011;6775;49.574;11.170;2022-07-17T02:07:42;2.10;;;0.90;;
13408;SDS011;6775;49.574;11.170;2022-07-17T02:10:11;1.43;;;0.97;;
13408;SDS011;6775;49.574;11.170;2022-07-17T02:12:41;0.70;;;0.70;;
13408;SDS011;6775;49.574;11.170;2022-07-17T02:15:11;1.67;;;0.90;;
13408;SDS011;6775;49.574;11.170;2022-07-17T02:17:40;1.00;;;0.90;;
13408;SDS011;6775;49.574;11.170;2022-07-17T02:20:08;0.83;;;0.80;;
13408;SDS011;6775;49.574;11.170;2022-07-17T02:22:37;1.60;;;0.90;;
13408;SDS011;6775;49.574;11.170;2022-07-17T02:25:06;1.67;;;0.97;;
13408;SDS011;6775;49.574;11.170;2022-07-17T02:27:35;1.13;;;1.00;;
13408;SDS011;6775;49.574;11.170;2022-07-17T02:30:03;2.57;;;0.97;;
13408;SDS011;6775;49.574;11.170;2022-07-17T02:32:34;1.27;;;0.80;;
13408;SDS011;6775;49.574;11.170;2022-07-17T02:35:02;5.93;;;0.90;;
13408;SDS011;6775;49.574;11.170;2022-07-17T02:37:30;0.70;;;0.70;;
13408;SDS011;6775;49.574;11.170;2022-07-17T02:39:58;1.00;;;0.80;;
13408;SDS011;6775;49.574;11.170;2022-07-17T02:42:27;1.20;;;1.00;;
13408;SDS011;6775;49.574;11.170;2022-07-17T02:44:57;2.53;;;0.87;;
13408;SDS011;6775;49.574;11.170;2022-07-17T02:47:26;1.87;;;1.50;;
13408;SDS011;6775;49.574;11.170;2022-07-17T02:49:56;1.10;;;0.90;;
13408;SDS011;6775;49.574;11.170;2022-07-17T02:52:24;1.83;;;1.20;;
13408;SDS011;6775;49.574;11.170;2022-07-17T02:54:52;1.70;;;1.17;;
13408;SDS011;6775;49.574;11.170;2022-07-17T02:57:20;0.97;;;0.73;;
13408;SDS011;6775;49.574;11.170;2022-07-17T02:59:48;2.07;;;1.10;;
13408;SDS011;6775;49.574;11.170;2022-07-17T03:02:16;0.80;;;0.80;;
13408;SDS011;6775;49.574;11.170;2022-07-17T03:04:44;2.23;;;0.80;;
13408;SDS011;6775;49.574;11.170;2022-07-17T03:07:13;0.90;;;0.87;;
13408;SDS011;6775;49.574;11.170;2022-07-17T03:09:41;1.67;;;1.10;;
13408;SDS011;6775;49.574;11.170;2022-07-17T03:12:09;2.97;;;1.13;;
13408;SDS011;6775;49.574;11.170;2022-07-17T03:14:38;1.10;;;0.70;;
13408;SDS011;6775;49.574;11.170;2022-07-17T03:17:06;1.07;;;0.90;;
13408;SDS011;6775;49.574;11.170;2022-07-17T03:19:34;1.13;;;0.80;;
13408;SDS011;6775;49.574;11.170;2022-07-17T03:22:02;1.23;;;0.80;;
13408;SDS011;6775;49.574;11.170;2022-07-17T03:24:32;2.80;;;1.10;;
13408;SDS011;6775;49.574;11.170;2022-07-17T03:27:00;2.27;;;1.20;;
13408;SDS011;6775;49.574;11.170;2022-07-17T03:29:28;2.30;;;0.90;;
13408;SDS011;6775;49.574;11.170;2022-07-17T03:31:56;2.63;;;1.00;;
13408;SDS011;6775;49.574;11.170;2022-07-17T03:34:24;2.20;;;1.00;;
13408;SDS011;6775;49.574;11.170;2022-07-17T03:36:52;0.90;;;0.90;;
13408;SDS011;6775;49.574;11.170;2022-07-17T03:39:20;3.20;;;1.03;;
13408;SDS011;6775;49.574;11.170;2022-07-17T03:41:49;2.03;;;1.10;;
13408;SDS011;6775;49.574;11.170;2022-07-17T03:44:17;2.23;;;0.90;;
13408;SDS011;6775;49.574;11.170;2022-07-17T03:46:45;1.10;;;1.00;;
13408;SDS011;6775;49.574;11.170;2022-07-17T03:49:14;1.33;;;0.80;;
13408;SDS011;6775;49.574;11.170;2022-07-17T03:51:42;1.27;;;0.90;;
13408;SDS011;6775;49.574;11.170;2022-07-17T03:54:10;0.90;;;0.90;;
13408;SDS011;6775;49.574;11.170;2022-07-17T03:56:38;2.03;;;1.30;;
13408;SDS011;6775;49.574;11.170;2022-07-17T03:59:07;1.37;;;0.93;;
13408;SDS011;6775;49.574;11.170;2022-07-17T04:01:35;2.57;;;0.87;;
13408;SDS011;6775;49.574;11.170;2022-07-17T04:04:03;1.90;;;1.10;;
13408;SDS011;6775;49.574;11.170;2022-07-17T04:06:31;1.67;;;0.90;;
13408;SDS011;6775;49.574;11.170;2022-07-17T04:08:59;1.60;;;0.90;;
13408;SDS011;6775;49.574;11.170;2022-07-17T04:11:27;1.57;;;0.90;;
13408;SDS011;6775;49.574;11.170;2022-07-17T04:13:55;2.47;;;1.00;;
13408;SDS011;6775;49.574;11.170;2022-07-17T04:16:24;0.90;;;0.80;;
13408;SDS011;6775;49.574;11.170;2022-07-17T04:18:52;2.00;;;1.00;;
13408;SDS011;6775;49.574;11.170;2022-07-17T04:21:20;1.73;;;0.90;;
13408;SDS011;6775;49.574;11.170;2022-07-17T04:23:48;1.73;;;0.97;;
13408;SDS011;6775;49.574;11.170;2022-07-17T04:26:16;2.23;;;1.00;;
13408;SDS011;6775;49.574;11.170;2022-07-17T04:28:44;2.43;;;1.30;;
13408;SDS011;6775;49.574;11.170;2022-07-17T04:31:13;3.03;;;1.00;;
13408;SDS011;6775;49.574;11.170;2022-07-17T04:33:42;1.83;;;1.00;;
13408;SDS011;6775;49.574;11.170;2022-07-17T04:36:10;1.10;;;1.00;;
13408;SDS011;6775;49.574;11.170;2022-07-17T04:38:38;2.83;;;1.20;;
13408;SDS011;6775;49.574;11.170;2022-07-17T04:41:06;3.00;;;1.07;;
13408;SDS011;6775;49.574;11.170;2022-07-17T04:43:34;2.93;;;1.23;;
13408;SDS011;6775;49.574;11.170;2022-07-17T04:46:02;1.63;;;1.00;;
13408;SDS011;6775;49.574;11.170;2022-07-17T04:48:30;2.60;;;1.10;;
13408;SDS011;6775;49.574;11.170;2022-07-17T04:50:59;2.23;;;1.00;;
13408;SDS011;6775;49.574;11.170;2022-07-17T04:53:27;2.00;;;1.20;;
13408;SDS011;6775;49.574;11.170;2022-07-17T04:55:55;2.67;;;1.10;;
13408;SDS011;6775;49.574;11.170;2022-07-17T04:58:23;1.40;;;1.10;;
13408;SDS011;6775;49.574;11.170;2022-07-17T05:00:50;1.33;;;0.90;;
13408;SDS011;6775;49.574;11.170;2022-07-17T05:03:18;2.90;;;1.13;;
13408;SDS011;6775;49.574;11.170;2022-07-17T05:05:46;1.50;;;1.10;;
13408;SDS011;6775;49.574;11.170;2022-07-17T05:08:15;1.60;;;1.10;;
13408;SDS011;6775;49.574;11.170;2022-07-17T05:10:44;2.20;;;1.33;;
13408;SDS011;6775;49.574;11.170;2022-07-17T05:13:12;2.43;;;1.10;;
13408;SDS011;6775;49.574;11.170;2022-07-17T05:15:40;1.93;;;1.03;;
13408;SDS011;6775;49.574;11.170;2022-07-17T05:18:08;2.47;;;1.20;;
13408;SDS011;6775;49.574;11.170;2022-07-17T05:20:36;1.43;;;1.07;;
13408;SDS011;6775;49.574;11.170;2022-07-17T05:23:04;0.90;;;0.90;;
13408;SDS011;6775;49.574;11.170;2022-07-17T05:25:33;1.83;;;0.80;;
13408;SDS011;6775;49.574;11.170;2022-07-17T05:28:01;1.20;;;1.00;;
13408;SDS011;6775;49.574;11.170;2022-07-17T05:30:29;2.43;;;0.90;;
13408;SDS011;6775;49.574;11.170;2022-07-17T05:32:57;2.23;;;1.00;;
13408;SDS011;6775;49.574;11.170;2022-07-17T05:35:25;3.73;;;1.30;;
13408;SDS011;6775;49.574;11.170;2022-07-17T05:37:53;1.60;;;0.80;;
13408;SDS011;6775;49.574;11.170;2022-07-17T05:40:21;1.83;;;0.80;;
13408;SDS011;6775;49.574;11.170;2022-07-17T05:42:50;0.80;;;0.80;;
13408;SDS011;6775;49.574;11.170;2022-07-17T05:45:18;0.87;;;0.60;;
13408;SDS011;6775;49.574;11.170;2022-07-17T05:47:46;2.50;;;0.80;;
13408;SDS011;6775;49.574;11.170;2022-07-17T05:50:14;1.90;;;0.80;;
13408;SDS011;6775;49.574;11.170;2022-07-17T05:52:42;1.10;;;0.70;;
13408;SDS011;6775;49.574;11.170;2022-07-17T05:55:10;0.80;;;0.80;;
13408;SDS011;6775;49.574;11.170;2022-07-17T05:57:38;1.37;;;0.80;;
13408;SDS011;6775;49.574;11.170;2022-07-17T06:00:08;1.57;;;0.80;;
13408;SDS011;6775;49.574;11.170;2022-07-17T06:02:38;0.60;;;0.53;;
13408;SDS011;6775;49.574;11.170;2022-07-17T06:05:07;1.00;;;0.70;;
13408;SDS011;6775;49.574;11.170;2022-07-17T06:07:43;0.87;;;0.83;;
13408;SDS011;6775;49.574;11.170;2022-07-17T06:10:11;0.60;;;0.60;;
13408;SDS011;6775;49.574;11.170;2022-07-17T06:12:39;0.60;;;0.60;;
13408;SDS011;6775;49.574;11.170;2022-07-17T06:15:08;1.53;;;0.77;;
13408;SDS011;6775;49.574;11.170;2022-07-17T06:17:37;1.33;;;0.70;;
13408;SDS011;6775;49.574;11.170;2022-07-17T06:20:09;1.73;;;0.90;;
13408;SDS011;6775;49.574;11.170;2022-07-17T06:22:38;2.10;;;0.80;;
13408;SDS011;6775;49.574;11.170;2022-07-17T06:25:06;0.80;;;0.70;;
13408;SDS011;6775;49.574;11.170;2022-07-17T06:27:35;0.60;;;0.53;;
13408;SDS011;6775;49.574;11.170;2022-07-17T06:30:08;0.60;;;0.50;;
13408;SDS011;6775;49.574;11.170;2022-07-17T06:32:37;1.23;;;0.60;;
13408;SDS011;6775;49.574;11.170;2022-07-17T06:35:05;0.80;;;0.60;;
13408;SDS011;6775;49.574;11.170;2022-07-17T06:37:34;0.63;;;0.63;;
13408;SDS011;6775;49.574;11.170;2022-07-17T06:40:03;0.87;;;0.60;;
13408;SDS011;6775;49.574;11.170;2022-07-17T06:42:32;0.50;;;0.50;;
13408;SDS011;6775;49.574;11.170;2022-07-17T06:45:00;1.40;;;0.80;;
13408;SDS011;6775;49.574;11.170;2022-07-17T06:47:29;0.57;;;0.50;;
13408;SDS011;6775;49.574;11.170;2022-07-17T06:49:57;1.57;;;0.67;;
13408;SDS011;6775;49.574;11.170;2022-07-17T06:52:24;0.77;;;0.50;;
13408;SDS011;6775;49.574;11.170;2022-07-17T06:54:56;0.87;;;0.53;;
13408;SDS011;6775;49.574;11.170;2022-07-17T06:57:24;0.50;;;0.50;;
13408;SDS011;6775;49.574;11.170;2022-07-17T06:59:52;0.60;;;0.60;;
13408;SDS011;6775;49.574;11.170;2022-07-17T07:02:19;0.93;;;0.60;;
13408;SDS011;6775;49.574;11.170;2022-07-17T07:04:49;0.60;;;0.50;;
13408;SDS011;6775;49.574;11.170;2022-07-17T07:07:17;0.50;;;0.43;;
13408;SDS011;6775;49.574;11.170;2022-07-17T07:09:44;1.77;;;0.70;;
13408;SDS011;6775;49.574;11.170;2022-07-17T07:12:12;0.67;;;0.50;;
13408;SDS011;6775;49.574;11.170;2022-07-17T07:14:40;2.07;;;0.73;;
13408;SDS011;6775;49.574;11.170;2022-07-17T07:17:08;0.60;;;0.57;;
13408;SDS011;6775;49.574;11.170;2022-07-17T07:19:36;0.60;;;0.60;;
13408;SDS011;6775;49.574;11.170;2022-07-17T07:22:05;1.37;;;0.87;;
13408;SDS011;6775;49.574;11.170;2022-07-17T07:24:33;0.80;;;0.60;;
13408;SDS011;6775;49.574;11.170;2022-07-17T07:27:01;1.07;;;0.80;;
13408;SDS011;6775;49.574;11.170;2022-07-17T07:29:29;1.73;;;0.73;;
13408;SDS011;6775;49.574;11.170;2022-07-17T07:31:57;2.97;;;1.07;;
13408;SDS011;6775;49.574;11.170;2022-07-17T07:34:25;0.90;;;0.67;;
13408;SDS011;6775;49.574;11.170;2022-07-17T07:36:52;1.03;;;0.50;;
13408;SDS011;6775;49.574;11.170;2022-07-17T07:39:22;1.00;;;0.50;;
13408;SDS011;6775;49.574;11.170;2022-07-17T07:41:50;0.73;;;0.67;;
13408;SDS011;6775;49.574;11.170;2022-07-17T07:44:18;0.73;;;0.60;;
13408;SDS011;6775;49.574;11.170;2022-07-17T07:46:56;0.77;;;0.73;;
13408;SDS011;6775;49.574;11.170;2022-07-17T07:49:25;0.50;;;0.47;;
13408;SDS011;6775;49.574;11.170;2022-07-17T07:51:53;0.93;;;0.57;;
13408;SDS011;6775;49.574;11.170;2022-07-17T07:54:31;0.63;;;0.63;;
13408;SDS011;6775;49.574;11.170;2022-07-17T07:56:59;0.40;;;0.40;;
13408;SDS011;6775;49.574;11.170;2022-07-17T07:59:27;0.50;;;0.50;;
13408;SDS011;6775;49.574;11.170;2022-07-17T08:01:58;0.50;;;0.50;;
13408;SDS011;6775;49.574;11.170;2022-07-17T08:04:26;0.80;;;0.50;;
13408;SDS011;6775;49.574;11.170;2022-07-17T08:06:54;1.10;;;0.50;;
13408;SDS011;6775;49.574;11.170;2022-07-17T08:09:22;0.80;;;0.50;;
13408;SDS011;6775;49.574;11.170;2022-07-17T08:11:52;1.03;;;0.43;;
13408;SDS011;6775;49.574;11.170;2022-07-17T08:14:19;0.50;;;0.50;;
13408;SDS011;6775;49.574;11.170;2022-07-17T08:16:47;0.60;;;0.60;;
13408;SDS011;6775;49.574;11.170;2022-07-17T08:19:15;0.57;;;0.50;;
13408;SDS011;6775;49.574;11.170;2022-07-17T08:21:43;0.73;;;0.60;;
13408;SDS011;6775;49.574;11.170;2022-07-17T08:24:11;0.80;;;0.60;;
13408;SDS011;6775;49.574;11.170;2022-07-17T08:26:39;0.77;;;0.50;;
13408;SDS011;6775;49.574;11.170;2022-07-17T08:29:09;1.53;;;0.67;;
13408;SDS011;6775;49.574;11.170;2022-07-17T08:31:37;0.93;;;0.60;;
13408;SDS011;6775;49.574;11.170;2022-07-17T08:34:05;0.63;;;0.60;;
13408;SDS011;6775;49.574;11.170;2022-07-17T08:36:32;1.07;;;0.50;;
13408;SDS011;6775;49.574;11.170;2022-07-17T08:39:00;1.33;;;0.83;;
13408;SDS011;6775;49.574;11.170;2022-07-17T08:41:29;1.00;;;0.70;;
13408;SDS011;6775;49.574;11.170;2022-07-17T08:44:03;0.50;;;0.50;;
13408;SDS011;6775;49.574;11.170;2022-07-17T08:46:33;1.20;;;0.70;;
13408;SDS011;6775;49.574;11.170;2022-07-17T08:49:04;0.60;;;0.40;;
13408;SDS011;6775;49.574;11.170;2022-07-17T08:51:34;1.20;;;0.60;;
13408;SDS011;6775;49.574;11.170;2022-07-17T08:54:09;0.80;;;0.60;;
13408;SDS011;6775;49.574;11.170;2022-07-17T08:56:37;1.57;;;0.70;;
13408;SDS011;6775;49.574;11.170;2022-07-17T08:59:06;0.90;;;0.80;;
13408;SDS011;6775;49.574;11.170;2022-07-17T09:01:35;0.60;;;0.50;;
13408;SDS011;6775;49.574;11.170;2022-07-17T09:04:03;0.93;;;0.67;;
13408;SDS011;6775;49.574;11.170;2022-07-17T09:06:34;0.67;;;0.60;;
13408;SDS011;6775;49.574;11.170;2022-07-17T09:09:03;1.97;;;1.07;;
13408;SDS011;6775;49.574;11.170;2022-07-17T09:11:41;1.87;;;0.80;;
13408;SDS011;6775;49.574;11.170;2022-07-17T09:14:10;1.20;;;0.73;;
13408;SDS011;6775;49.574;11.170;2022-07-17T09:16:48;0.50;;;0.50;;
13408;SDS011;6775;49.574;11.170;2022-07-17T09:19:23;0.90;;;0.70;;
13408;SDS011;6775;49.574;11.170;2022-07-17T09:22:09;0.87;;;0.70;;
13408;SDS011;6775;49.574;11.170;2022-07-17T09:24:40;1.73;;;0.93;;
13408;SDS011;6775;49.574;11.170;2022-07-17T09:27:09;0.70;;;0.67;;
13408;SDS011;6775;49.574;11.170;2022-07-17T09:29:50;0.90;;;0.70;;
13408;SDS011;6775;49.574;11.170;2022-07-17T09:32:22;1.20;;;0.90;;
13408;SDS011;6775;49.574;11.170;2022-07-17T09:34:51;1.00;;;0.67;;
13408;SDS011;6775;49.574;11.170;2022-07-17T09:37:21;0.80;;;0.80;;
13408;SDS011;6775;49.574;11.170;2022-07-17T09:39:49;1.37;;;0.60;;
13408;SDS011;6775;49.574;11.170;2022-07-17T09:42:21;2.33;;;1.10;;
13408;SDS011;6775;49.574;11.170;2022-07-17T09:44:54;1.80;;;1.10;;
13408;SDS011;6775;49.574;11.170;2022-07-17T09:47:29;1.23;;;0.90;;
13408;SDS011;6775;49.574;11.170;2022-07-17T09:49:58;1.87;;;0.73;;
13408;SDS011;6775;49.574;11.170;2022-07-17T09:52:27;0.70;;;0.60;;
13408;SDS011;6775;49.574;11.170;2022-07-17T09:54:57;0.73;;;0.73;;
13408;SDS011;6775;49.574;11.170;2022-07-17T09:57:46;0.60;;;0.60;;
13408;SDS011;6775;49.574;11.170;2022-07-17T10:00:16;0.60;;;0.60;;
13408;SDS011;6775;49.574;11.170;2022-07-17T10:02:50;0.73;;;0.60;;
13408;SDS011;6775;49.574;11.170;2022-07-17T10:05:19;2.27;;;1.13;;
13408;SDS011;6775;49.574;11.170;2022-07-17T10:07:47;1.23;;;0.70;;
13408;SDS011;6775;49.574;11.170;2022-07-17T10:10:16;0.77;;;0.77;;
13408;SDS011;6775;49.574;11.170;2022-07-17T10:12:46;1.00;;;0.90;;
13408;SDS011;6775;49.574;11.170;2022-07-17T10:15:15;1.20;;;0.90;;
13408;SDS011;6775;49.574;11.170;2022-07-17T10:17:46;0.60;;;0.60;;
13408;SDS011;6775;49.574;11.170;2022-07-17T10:20:24;0.70;;;0.70;;
13408;SDS011;6775;49.574;11.170;2022-07-17T10:22:52;0.67;;;0.67;;
13408;SDS011;6775;49.574;11.170;2022-07-17T10:25:20;0.90;;;0.60;;
13408;SDS011;6775;49.574;11.170;2022-07-17T10:27:50;1.03;;;0.73;;
13408;SDS011;6775;49.574;11.170;2022-07-17T10:30:22;0.70;;;0.70;;
13408;SDS011;6775;49.574;11.170;2022-07-17T10:32:53;1.87;;;0.80;;
13408;SDS011;6775;49.574;11.170;2022-07-17T10:35:22;0.90;;;0.90;;
13408;SDS011;6775;49.574;11.170;2022-07-17T10:37:51;1.43;;;0.73;;
13408;SDS011;6775;49.574;11.170;2022-07-17T10:40:21;1.83;;;1.20;;
13408;SDS011;6775;49.574;11.170;2022-07-17T10:42:51;3.83;;;0.90;;
13408;SDS011;6775;49.574;11.170;2022-07-17T10:45:23;1.03;;;0.90;;
13408;SDS011;6775;49.574;11.170;2022-07-17T10:47:54;0.80;;;0.70;;
13408;SDS011;6775;49.574;11.170;2022-07-17T10:50:25;0.70;;;0.60;;
13408;SDS011;6775;49.574;11.170;2022-07-17T10:52:59;0.73;;;0.70;;
13408;SDS011;6775;49.574;11.170;2022-07-17T10:55:29;0.83;;;0.50;;
13408;SDS011;6775;49.574;11.170;2022-07-17T10:57:57;1.87;;;0.93;;
13408;SDS011;6775;49.574;11.170;2022-07-17T11:00:25;1.30;;;0.70;;
13408;SDS011;6775;49.574;11.170;2022-07-17T11:02:53;0.60;;;0.60;;
13408;SDS011;6775;49.574;11.170;2022-07-17T11:05:22;0.63;;;0.50;;
13408;SDS011;6775;49.574;11.170;2022-07-17T11:07:54;0.93;;;0.60;;
13408;SDS011;6775;49.574;11.170;2022-07-17T11:10:26;1.57;;;0.50;;
13408;SDS011;6775;49.574;11.170;2022-07-17T11:13:06;1.17;;;0.60;;
13408;SDS011;6775;49.574;11.170;2022-07-17T11:15:42;0.60;;;0.60;;
13408;SDS011;6775;49.574;11.170;2022-07-17T11:18:12;1.03;;;0.70;;
13408;SDS011;6775;49.574;11.170;2022-07-17T11:20:49;1.07;;;0.80;;
13408;SDS011;6775;49.574;11.170;2022-07-17T11:23:18;0.70;;;0.70;;
13408;SDS011;6775;49.574;11.170;2022-07-17T11:25:56;0.70;;;0.70;;
13408;SDS011;6775;49.574;11.170;2022-07-17T11:28:26;0.73;;;0.50;;
13408;SDS011;6775;49.574;11.170;2022-07-17T11:31:14;0.97;;;0.60;;
13408;SDS011;6775;49.574;11.170;2022-07-17T11:33:48;1.90;;;0.60;;
13408;SDS011;6775;49.574;11.170;2022-07-17T11:36:20;1.43;;;0.90;;
13408;SDS011;6775;49.574;11.170;2022-07-17T11:38:50;1.17;;;0.70;;
13408;SDS011;6775;49.574;11.170;2022-07-17T11:41:20;0.87;;;0.60;;
13408;SDS011;6775;49.574;11.170;2022-07-17T11:43:48;1.57;;;0.70;;
13408;SDS011;6775;49.574;11.170;2022-07-17T11:46:16;0.73;;;0.50;;
13408;SDS011;6775;49.574;11.170;2022-07-17T11:48:44;0.70;;;0.50;;
13408;SDS011;6775;49.574;11.170;2022-07-17T11:51:12;0.90;;;0.60;;
13408;SDS011;6775;49.574;11.170;2022-07-17T11:53:40;1.60;;;0.50;;
13408;SDS011;6775;49.574;11.170;2022-07-17T11:56:07;1.03;;;0.77;;
13408;SDS011;6775;49.574;11.170;2022-07-17T11:58:47;1.03;;;0.70;;
13408;SDS011;6775;49.574;11.170;2022-07-17T12:01:16;1.17;;;0.73;;
13408;SDS011;6775;49.574;11.170;2022-07-17T12:03:44;1.40;;;0.80;;
13408;SDS011;6775;49.574;11.170;2022-07-17T12:06:12;0.80;;;0.60;;
13408;SDS011;6775;49.574;11.170;2022-07-17T12:08:49;1.03;;;0.60;;
13408;SDS011;6775;49.574;11.170;2022-07-17T12:11:18;1.50;;;0.70;;
13408;SDS011;6775;49.574;11.170;2022-07-17T12:13:47;1.17;;;0.70;;
13408;SDS011;6775;49.574;11.170;2022-07-17T12:16:24;1.53;;;0.70;;
13408;SDS011;6775;49.574;11.170;2022-07-17T12:18:59;1.00;;;0.60;;
13408;SDS011;6775;49.574;11.170;2022-07-17T12:21:31;0.50;;;0.50;;
13408;SDS011;6775;49.574;11.170;2022-07-17T12:24:03;0.60;;;0.60;;
13408;SDS011;6775;49.574;11.170;2022-07-17T12:26:32;0.87;;;0.57;;
13408;SDS011;6775;49.574;11.170;2022-07-17T12:29:02;0.50;;;0.47;;
13408;SDS011;6775;49.574;11.170;2022-07-17T12:31:30;0.50;;;0.40;;
13408;SDS011;6775;49.574;11.170;2022-07-17T12:33:58;0.53;;;0.47;;
13408;SDS011;6775;49.574;11.170;2022-07-17T12:36:26;0.57;;;0.50;;
13408;SDS011;6775;49.574;11.170;2022-07-17T12:38:54;0.40;;;0.40;;
13408;SDS011;6775;49.574;11.170;2022-07-17T12:41:22;0.50;;;0.50;;
13408;SDS011;6775;49.574;11.170;2022-07-17T12:43:49;0.87;;;0.50;;
13408;SDS011;6775;49.574;11.170;2022-07-17T12:46:19;0.60;;;0.50;;
13408;SDS011;6775;49.574;11.170;2022-07-17T12:48:47;0.53;;;0.53;;
13408;SDS011;6775;49.574;11.170;2022-07-17T12:51:16;1.17;;;0.40;;
13408;SDS011;6775;49.574;11.170;2022-07-17T12:53:44;0.77;;;0.60;;
13408;SDS011;6775;49.574;11.170;2022-07-17T12:56:12;0.80;;;0.50;;
13408;SDS011;6775;49.574;11.170;2022-07-17T12:58:40;0.53;;;0.53;;
13408;SDS011;6775;49.574;11.170;2022-07-17T13:01:08;1.07;;;0.50;;
13408;SDS011;6775;49.574;11.170;2022-07-17T13:03:37;0.50;;;0.40;;
13408;SDS011;6775;49.574;11.170;2022-07-17T13:06:06;0.60;;;0.57;;
13408;SDS011;6775;49.574;11.170;2022-07-17T13:08:34;0.93;;;0.40;;
13408;SDS011;6775;49.574;11.170;2022-07-17T13:11:03;0.60;;;0.60;;
13408;SDS011;6775;49.574;11.170;2022-07-17T13:13:36;1.33;;;0.60;;
13408;SDS011;6775;49.574;11.170;2022-07-17T13:16:09;0.40;;;0.40;;
13408;SDS011;6775;49.574;11.170;2022-07-17T13:18:40;0.60;;;0.53;;
13408;SDS011;6775;49.574;11.170;2022-07-17T13:21:08;0.40;;;0.40;;
13408;SDS011;6775;49.574;11.170;2022-07-17T13:23:39;2.93;;;0.60;;
13408;SDS011;6775;49.574;11.170;2022-07-17T13:26:07;0.87;;;0.60;;
13408;SDS011;6775;49.574;11.170;2022-07-17T13:28:43;0.60;;;0.50;;
13408;SDS011;6775;49.574;11.170;2022-07-17T13:31:12;0.40;;;0.40;;
13408;SDS011;6775;49.574;11.170;2022-07-17T13:33:41;0.50;;;0.33;;
13408;SDS011;6775;49.574;11.170;2022-07-17T13:36:09;0.60;;;0.50;;
13408;SDS011;6775;49.574;11.170;2022-07-17T13:38:37;0.83;;;0.50;;
13408;SDS011;6775;49.574;11.170;2022-07-17T13:41:05;0.47;;;0.40;;
13408;SDS011;6775;49.574;11.170;2022-07-17T13:43:33;1.27;;;0.40;;
13408;SDS011;6775;49.574;11.170;2022-07-17T13:46:02;1.50;;;0.60;;
13408;SDS011;6775;49.574;11.170;2022-07-17T13:48:30;1.13;;;0.50;;
13408;SDS011;6775;49.574;11.170;2022-07-17T13:50:59;0.63;;;0.47;;
13408;SDS011;6775;49.574;11.170;2022-07-17T13:53:28;0.70;;;0.50;;
13408;SDS011;6775;49.574;11.170;2022-07-17T13:55:56;1.03;;;0.70;;
13408;SDS011;6775;49.574;11.170;2022-07-17T13:58:24;1.40;;;0.53;;
13408;SDS011;6775;49.574;11.170;2022-07-17T14:00:52;2.10;;;0.60;;
13408;SDS011;6775;49.574;11.170;2022-07-17T14:03:20;1.30;;;0.50;;
13408;SDS011;6775;49.574;11.170;2022-07-17T14:05:49;0.90;;;0.60;;
13408;SDS011;6775;49.574;11.170;2022-07-17T14:08:18;1.17;;;0.50;;
13408;SDS011;6775;49.574;11.170;2022-07-17T14:10:46;1.83;;;0.47;;
13408;SDS011;6775;49.574;11.170;2022-07-17T14:13:14;0.70;;;0.63;;
13408;SDS011;6775;49.574;11.170;2022-07-17T14:15:42;0.60;;;0.50;;
13408;SDS011;6775;49.574;11.170;2022-07-17T14:18:10;0.97;;;0.57;;
13408;SDS011;6775;49.574;11.170;2022-07-17T14:20:38;0.43;;;0.30;;
13408;SDS011;6775;49.574;11.170;2022-07-17T14:23:06;0.40;;;0.30;;
13408;SDS011;6775;49.574;11.170;2022-07-17T14:25:35;1.33;;;0.60;;
13408;SDS011;6775;49.574;11.170;2022-07-17T14:28:08;0.50;;;0.40;;
13408;SDS011;6775;49.574;11.170;2022-07-17T14:30:36;0.63;;;0.47;;
13408;SDS011;6775;49.574;11.170;2022-07-17T14:33:04;0.40;;;0.33;;
13408;SDS011;6775;49.574;11.170;2022-07-17T14:35:32;0.60;;;0.40;;
13408;SDS011;6775;49.574;11.170;2022-07-17T14:38:01;0.63;;;0.50;;
13408;SDS011;6775;49.574;11.170;2022-07-17T14:40:32;0.70;;;0.50;;
13408;SDS011;6775;49.574;11.170;2022-07-17T14:43:01;2.23;;;0.60;;
13408;SDS011;6775;49.574;11.170;2022-07-17T14:45:29;0.97;;;0.47;;
13408;SDS011;6775;49.574;11.170;2022-07-17T14:47:57;0.60;;;0.50;;
13408;SDS011;6775;49.574;11.170;2022-07-17T14:50:25;2.07;;;0.50;;
13408;SDS011;6775;49.574;11.170;2022-07-17T14:52:53;0.80;;;0.30;;
13408;SDS011;6775;49.574;11.170;2022-07-17T14:55:20;0.73;;;0.57;;
13408;SDS011;6775;49.574;11.170;2022-07-17T14:57:51;1.10;;;0.70;;
13408;SDS011;6775;49.574;11.170;2022-07-17T15:00:20;1.00;;;0.83;;